Time;durP1;ratioP1;P1;durP2;ratioP2;P2;SDS_P1;SDS_P2;PMS_P1;PMS_P2;Temp;Humidity;BMP_temperature;BMP_pressure;BME280_temperature;BME280_humidity;BME280_pressure;Samples;Min_cycle;Max_cycle;Signal;HPM_P1;HPM_P2
2022/11/28 00:01:20;;;;;;;;;54.67;37.00;;;;;-0.31;89.66;99262.00;4967970;28;101711;-71
2022/11/28 00:03:47;;;;;;;;;51.67;43.00;;;;;-0.40;90.93;99267.16;4966253;28;108204;-72
2022/11/28 00:06:15;;;;;;;;;57.67;41.33;;;;;-0.54;91.81;99262.94;4964345;28;101876;-71
2022/11/28 00:08:42;;;;;;;;;50.33;44.67;;;;;-0.48;92.39;99276.56;4967767;28;101720;-72
2022/11/28 00:11:12;;;;;;;;;42.33;37.67;;;;;-0.46;92.27;99269.34;4968987;28;102182;-72
2022/11/28 00:13:40;;;;;;;;;68.00;48.33;;;;;-0.48;92.04;99271.25;4962011;28;107995;-72
2022/11/28 00:16:11;;;;;;;;;45.00;41.00;;;;;-0.45;92.69;99262.22;4968905;28;102449;-72
2022/11/28 00:18:38;;;;;;;;;44.33;32.00;;;;;-0.77;91.98;99200.06;4965712;28;101875;-73
2022/11/28 00:21:08;;;;;;;;;43.00;30.33;;;;;-0.42;91.36;99255.84;4965020;28;101642;-73
2022/11/28 00:23:35;;;;;;;;;42.00;34.00;;;;;-0.40;90.63;99257.41;4961010;28;102957;-72
2022/11/28 00:26:11;;;;;;;;;44.33;39.33;;;;;-0.46;91.26;99255.22;4964078;28;101873;-72
2022/11/28 00:28:38;;;;;;;;;43.33;39.33;;;;;-0.51;91.63;99262.69;4965001;28;101663;-72
2022/11/28 00:31:10;;;;;;;;;45.00;35.00;;;;;-0.52;91.98;99266.31;4950198;28;101800;-72
2022/11/28 00:33:37;;;;;;;;;45.67;36.00;;;;;-0.61;92.17;99256.38;4958469;28;103566;-72
2022/11/28 00:36:05;;;;;;;;;57.33;37.00;;;;;-0.53;92.76;99276.06;4960899;28;102133;-71
2022/11/28 00:38:32;;;;;;;;;49.00;36.00;;;;;-0.79;92.98;99220.56;4954880;28;102020;-72
2022/11/28 00:41:19;;;;;;;;;49.33;40.00;;;;;-0.49;94.33;99260.75;4953667;28;101786;-72
2022/11/28 00:43:48;;;;;;;;;40.33;34.33;;;;;-0.48;93.56;99251.81;4960585;28;108428;-72
2022/11/28 00:46:17;;;;;;;;;39.00;34.33;;;;;-0.46;93.40;99257.88;4961133;28;102420;-72
2022/11/28 00:48:45;;;;;;;;;53.67;40.33;;;;;-0.49;93.48;99247.47;4967369;28;101946;-72
2022/11/28 00:51:13;;;;;;;;;72.00;54.00;;;;;-0.58;93.67;99243.69;4967224;28;102004;-72
2022/11/28 00:53:41;;;;;;;;;69.00;47.67;;;;;-0.56;94.21;99233.81;4975002;28;107589;-72
2022/11/28 00:56:11;;;;;;;;;61.33;47.00;;;;;-0.33;94.77;99233.88;4966969;28;101778;-72
2022/11/28 00:58:39;;;;;;;;;33.67;30.00;;;;;-0.18;94.89;99230.06;4964388;28;101668;-72
2022/11/28 01:01:11;;;;;;;;;24.33;20.67;;;;;-0.06;94.36;99235.28;4963382;28;102666;-72
2022/11/28 01:03:38;;;;;;;;;18.33;15.67;;;;;-0.07;93.08;99217.63;4956641;28;103416;-72
2022/11/28 01:06:06;;;;;;;;;26.33;18.00;;;;;0.02;93.03;99220.53;4963642;28;101787;-72
2022/11/28 01:08:33;;;;;;;;;9.67;8.00;;;;;0.12;92.51;99232.97;4957549;28;101913;-72
2022/11/28 01:11:01;;;;;;;;;13.00;12.67;;;;;0.19;92.55;99220.88;4968748;28;103057;-72
2022/11/28 01:13:28;;;;;;;;;26.00;24.67;;;;;0.10;92.15;99196.84;4969349;28;103431;-72
2022/11/28 01:15:57;;;;;;;;;55.33;38.67;;;;;0.19;92.97;99193.44;4963628;28;101932;-72
2022/11/28 01:18:24;;;;;;;;;54.67;42.33;;;;;0.33;92.40;99201.19;4966507;28;102712;-72
2022/11/28 01:20:51;;;;;;;;;64.67;46.67;;;;;0.32;91.96;99180.88;4967494;28;101574;-72
2022/11/28 01:23:18;;;;;;;;;48.33;40.33;;;;;0.44;92.25;99186.06;4962805;28;103288;-72
2022/11/28 01:25:45;;;;;;;;;30.67;21.33;;;;;0.52;91.97;99188.09;4962746;28;101777;-72
2022/11/28 01:28:12;;;;;;;;;31.00;25.00;;;;;0.59;91.72;99181.31;4965698;28;101854;-72
2022/11/28 01:30:39;;;;;;;;;21.33;17.67;;;;;0.66;91.63;99187.84;4964377;28;103295;-72
2022/11/28 01:33:06;;;;;;;;;30.33;23.33;;;;;0.60;91.15;99164.38;4961290;28;103342;-72
2022/11/28 01:35:33;;;;;;;;;18.33;17.00;;;;;0.73;90.92;99183.69;4961907;28;102831;-72
2022/11/28 01:38:00;;;;;;;;;27.00;22.00;;;;;0.78;90.71;99178.84;4968540;28;101942;-72
2022/11/28 01:40:27;;;;;;;;;30.00;21.00;;;;;0.84;90.44;99178.34;4966506;28;102188;-72
2022/11/28 01:42:54;;;;;;;;;19.33;13.67;;;;;0.94;90.84;99181.13;4963868;28;103520;-72
2022/11/28 01:45:28;;;;;;;;;16.33;14.67;;;;;0.96;90.92;99172.97;4970244;28;102414;-72
2022/11/28 01:47:59;;;;;;;;;17.67;12.00;;;;;0.97;89.82;99169.34;4962195;28;103014;-72
2022/11/28 01:50:28;;;;;;;;;26.67;23.33;;;;;0.87;90.33;99162.13;4968580;28;103177;-72
2022/11/28 01:53:00;;;;;;;;;30.33;25.00;;;;;0.67;90.61;99131.00;4969581;28;103455;-73
2022/11/28 01:55:32;;;;;;;;;23.33;15.67;;;;;0.97;90.26;99150.72;4965613;28;101764;-71
2022/11/28 01:58:00;;;;;;;;;12.67;9.33;;;;;0.91;89.98;99144.06;4963014;28;102426;-71
2022/11/28 02:00:27;;;;;;;;;30.67;27.33;;;;;1.01;89.48;99149.50;4966417;28;103177;-72
2022/11/28 02:03:24;;;;;;;;;40.00;29.67;;;;;0.99;89.49;99146.94;4959857;28;103563;-71
2022/11/28 02:05:52;;;;;;;;;46.33;40.00;;;;;0.96;89.80;99141.03;4957123;28;102076;-71
2022/11/28 02:08:25;;;;;;;;;47.00;40.67;;;;;0.98;89.39;99145.28;4958736;28;101980;-71
2022/11/28 02:11:28;;;;;;;;;50.33;36.00;;;;;0.99;89.70;99140.81;4969608;28;102114;-72
2022/11/28 02:14:42;;;;;;;;;45.00;38.67;;;;;1.03;89.29;99152.88;4952459;28;108895;-71
2022/11/28 02:17:27;;;;;;;;;44.67;33.33;;;;;1.04;89.50;99136.75;4943954;28;102326;-72
2022/11/28 02:20:18;;;;;;;;;38.33;33.33;;;;;1.07;89.70;99138.34;4963628;28;101634;-71
2022/11/28 02:23:23;;;;;;;;;27.67;24.67;;;;;1.12;89.77;99136.13;4958415;28;101622;-71
2022/11/28 02:26:07;;;;;;;;;28.67;26.33;;;;;1.16;89.36;99126.91;4963265;28;107171;-71
2022/11/28 02:29:11;;;;;;;;;23.00;20.00;;;;;1.23;89.04;99128.91;4954808;28;101834;-71
2022/11/28 02:32:03;;;;;;;;;19.00;13.25;;;;;1.31;88.41;99142.44;4948065;28;101718;-71
2022/11/28 02:34:53;;;;;;;;;14.00;10.75;;;;;1.32;89.12;99132.63;4961413;28;102866;-71
2022/11/28 02:37:49;;;;;;;;;18.00;15.33;;;;;1.34;89.15;99133.34;4958032;28;107737;-71
2022/11/28 02:40:35;;;;;;;;;24.33;21.33;;;;;1.26;88.40;99117.19;4961815;28;102051;-71
2022/11/28 02:43:31;;;;;;;;;36.67;30.00;;;;;1.28;87.73;99128.53;4955864;28;101756;-71
2022/11/28 02:46:17;;;;;;;;;34.00;29.00;;;;;1.22;88.94;99115.72;4961898;28;102937;-71
2022/11/28 02:48:56;;;;;;;;;30.67;26.00;;;;;1.16;88.23;99102.94;4950840;28;108094;-71
2022/11/28 02:51:45;;;;;;;;;40.00;37.33;;;;;1.17;88.01;99117.97;4960700;28;101780;-71
2022/11/28 02:54:14;;;;;;;;;57.33;41.33;;;;;1.12;88.40;99117.50;4963121;28;101750;-71
2022/11/28 02:56:52;;;;;;;;;45.67;33.33;;;;;1.11;89.28;99116.66;4949017;28;101939;-72
2022/11/28 02:59:28;;;;;;;;;53.00;40.00;;;;;0.83;89.09;99067.53;4959999;28;107957;-71
2022/11/28 03:01:56;;;;;;;;;37.33;29.33;;;;;1.01;89.31;99107.75;4963433;28;103785;-71
2022/11/28 03:04:45;;;;;;;;;32.67;22.67;;;;;1.10;89.50;99106.97;4962269;28;101796;-72
2022/11/28 03:07:35;;;;;;;;;41.33;33.33;;;;;1.10;89.31;99100.78;4958790;28;103162;-71
2022/11/28 03:10:18;;;;;;;;;36.00;32.33;;;;;1.15;88.96;99106.56;4904523;28;107731;-71
2022/11/28 03:12:44;;;;;;;;;16.00;13.00;;;;;1.26;89.16;99103.88;4944238;28;101798;-72
2022/11/28 03:15:17;;;;;;;;;27.00;24.00;;;;;1.30;89.26;99097.28;4960458;28;102776;-72
2022/11/28 03:18:19;;;;;;;;;31.33;24.00;;;;;1.33;88.40;99103.19;4957531;28;101776;-72
2022/11/28 03:20:54;;;;;;;;;20.33;16.67;;;;;1.44;88.93;99109.44;4953757;28;108114;-70
2022/11/28 03:23:39;;;;;;;;;22.33;14.33;;;;;1.14;87.86;99056.94;4954918;28;101719;-72
2022/11/28 03:26:15;;;;;;;;;25.67;21.67;;;;;1.42;87.98;99100.72;4965000;28;102316;-73
2022/11/28 03:28:46;;;;;;;;;14.25;13.25;;;;;1.47;88.76;99094.03;4957436;28;101654;-74
2022/11/28 03:31:18;;;;;;;;;60.00;43.33;;;;;1.09;88.07;99054.66;4965122;28;107770;-71
2022/11/28 03:33:58;;;;;;;;;53.33;42.33;;;;;1.28;88.80;99091.25;4965788;28;105821;-71
2022/11/28 03:36:27;;;;;;;;;40.67;33.67;;;;;1.34;88.32;99088.06;4961247;28;102078;-71
2022/11/28 03:39:02;;;;;;;;;40.67;35.33;;;;;1.21;88.22;99063.44;4958106;28;101922;-71
2022/11/28 03:41:41;;;;;;;;;35.67;29.33;;;;;1.37;88.61;99087.78;4963701;28;103411;-71
2022/11/28 03:44:19;;;;;;;;;25.67;21.00;;;;;1.34;88.32;99083.59;4960048;28;101910;-71
2022/11/28 03:46:47;;;;;;;;;32.00;28.33;;;;;1.35;88.06;99085.25;4961031;28;101778;-70
2022/11/28 03:49:24;;;;;;;;;50.33;34.67;;;;;1.30;87.90;99086.66;4966240;28;101813;-72
2022/11/28 03:51:58;;;;;;;;;39.00;32.00;;;;;1.32;88.31;99087.34;4950579;28;107978;-73
2022/11/28 03:54:39;;;;;;;;;56.00;42.67;;;;;1.25;88.42;99071.06;4961583;28;103828;-72
2022/11/28 03:57:30;;;;;;;;;37.67;30.67;;;;;1.30;88.17;99068.84;4954491;28;101644;-72
2022/11/28 04:00:06;;;;;;;;;39.33;33.67;;;;;1.38;87.82;99073.50;4964905;28;101860;-71
2022/11/28 04:02:39;;;;;;;;;24.33;19.33;;;;;1.48;87.60;99070.91;4964624;28;104882;-72
2022/11/28 04:05:24;;;;;;;;;20.67;15.67;;;;;1.50;86.78;99076.91;4965892;28;102055;-71
2022/11/28 04:07:55;;;;;;;;;21.00;19.67;;;;;1.49;87.63;99081.41;4950552;28;102347;-72
2022/11/28 04:10:33;;;;;;;;;17.75;12.50;;;;;1.54;87.38;99070.34;4970598;28;101643;-72
2022/11/28 04:13:21;;;;;;;;;24.67;20.33;;;;;1.42;86.33;99069.59;4961984;28;103943;-72
2022/11/28 04:16:10;;;;;;;;;35.67;29.00;;;;;1.40;87.29;99070.72;4956238;28;101702;-72
2022/11/28 04:18:46;;;;;;;;;29.67;26.67;;;;;1.36;87.30;99075.44;4964543;28;101691;-72
2022/11/28 04:21:48;;;;;;;;;34.00;29.00;;;;;1.43;87.16;99065.97;4962757;28;101807;-72
2022/11/28 04:24:23;;;;;;;;;34.00;27.67;;;;;1.42;86.47;99064.28;4873743;28;107746;-72
2022/11/28 04:26:59;;;;;;;;;29.00;25.00;;;;;1.40;87.27;99065.38;4954169;28;102160;-72
2022/11/28 04:29:33;;;;;;;;;35.33;29.67;;;;;1.35;86.79;99058.59;4969869;28;101763;-72
2022/11/28 04:32:02;;;;;;;;;32.67;27.00;;;;;1.19;86.75;99036.94;4964049;28;101868;-72
2022/11/28 04:34:33;;;;;;;;;29.33;26.67;;;;;1.37;87.89;99058.50;4966265;28;103608;-72
2022/11/28 04:37:03;;;;;;;;;29.33;25.00;;;;;1.36;86.89;99056.78;4964821;28;102017;-71
2022/11/28 04:39:37;;;;;;;;;21.67;18.00;;;;;1.36;88.11;99054.13;4962140;28;102996;-72
2022/11/28 04:42:10;;;;;;;;;17.00;13.00;;;;;1.38;88.06;99044.19;4965167;28;101782;-71
2022/11/28 04:44:49;;;;;;;;;34.00;27.33;;;;;1.35;87.81;99047.94;4956654;28;102689;-72
2022/11/28 04:47:17;;;;;;;;;44.67;36.00;;;;;1.24;88.15;99056.03;4964701;28;101719;-72
2022/11/28 04:49:44;;;;;;;;;44.00;33.33;;;;;1.30;87.80;99054.69;4969391;28;101881;-71
2022/11/28 04:52:23;;;;;;;;;36.67;28.67;;;;;1.33;87.56;99065.91;4968663;28;101669;-72
2022/11/28 04:54:56;;;;;;;;;26.00;21.00;;;;;1.49;87.66;99059.25;4961414;28;107906;-71
2022/11/28 04:57:31;;;;;;;;;14.00;13.50;;;;;1.56;87.00;99065.75;4963668;28;103033;-71
2022/11/28 05:00:03;;;;;;;;;19.50;10.50;;;;;1.61;87.23;99064.38;4965079;28;101622;-72
2022/11/28 05:02:32;;;;;;;;;6.50;5.50;;;;;1.59;86.71;99049.47;4949010;28;101884;-71
2022/11/28 05:04:59;;;;;;;;;17.00;14.25;;;;;1.43;85.92;99034.00;4965517;28;103538;-72
2022/11/28 05:07:26;;;;;;;;;16.00;13.25;;;;;1.59;87.15;99055.66;4966930;28;102027;-72
2022/11/28 05:09:54;;;;;;;;;19.25;17.00;;;;;1.55;85.97;99054.22;4964810;28;102810;-72
2022/11/28 05:12:21;;;;;;;;;24.67;22.00;;;;;1.58;86.28;99069.94;4966845;28;102002;-72
2022/11/28 05:14:48;;;;;;;;;13.67;13.33;;;;;1.63;87.01;99073.06;4964407;28;103477;-71
2022/11/28 05:17:15;;;;;;;;;32.67;28.67;;;;;1.54;85.96;99071.19;4969957;28;102789;-72
2022/11/28 05:19:42;;;;;;;;;42.33;37.00;;;;;1.49;86.74;99065.41;4967334;28;102100;-72
2022/11/28 05:22:09;;;;;;;;;41.00;33.67;;;;;1.50;87.35;99077.75;4966452;28;101724;-72
2022/11/28 05:24:36;;;;;;;;;40.00;31.33;;;;;1.44;87.01;99053.50;4961496;28;103342;-72
2022/11/28 05:27:03;;;;;;;;;26.00;25.33;;;;;1.55;86.94;99064.91;4964631;28;101881;-71
2022/11/28 05:29:30;;;;;;;;;32.67;29.00;;;;;1.48;87.24;99063.75;4962387;28;101684;-72
2022/11/28 05:31:57;;;;;;;;;32.00;31.00;;;;;1.52;86.33;99064.31;4968895;28;101780;-72
2022/11/28 05:34:24;;;;;;;;;22.67;20.33;;;;;1.60;87.40;99067.16;4943368;28;103531;-72
2022/11/28 05:36:51;;;;;;;;;19.33;17.33;;;;;1.67;86.89;99073.63;4942473;28;102386;-72
2022/11/28 05:39:18;;;;;;;;;15.50;14.50;;;;;1.72;86.43;99069.59;4945393;28;101871;-72
2022/11/28 05:41:45;;;;;;;;;17.67;14.00;;;;;1.64;86.11;99060.59;4967366;28;103056;-72
2022/11/28 05:44:11;;;;;;;;;16.75;16.00;;;;;1.69;86.34;99067.22;4962522;28;107938;-72
2022/11/28 05:46:38;;;;;;;;;16.75;13.50;;;;;1.73;86.97;99065.09;4964620;28;101844;-72
2022/11/28 05:49:05;;;;;;;;;20.75;17.75;;;;;1.77;87.20;99064.72;4960582;28;103132;-72
2022/11/28 05:51:32;;;;;;;;;16.00;14.25;;;;;1.72;87.12;99053.59;4967218;28;101928;-72
2022/11/28 05:53:59;;;;;;;;;13.00;11.50;;;;;1.84;86.77;99065.03;4962451;28;103789;-72
2022/11/28 05:56:26;;;;;;;;;15.00;14.50;;;;;1.80;86.27;99064.44;4965977;28;102226;-72
2022/11/28 05:58:53;;;;;;;;;21.00;17.00;;;;;1.74;87.02;99054.31;4960192;28;101880;-72
2022/11/28 06:01:26;;;;;;;;;15.50;12.00;;;;;1.80;87.32;99050.28;4967774;28;101873;-72
2022/11/28 06:03:59;;;;;;;;;13.25;10.50;;;;;1.83;86.62;99047.34;4962139;28;103893;-72
2022/11/28 06:06:29;;;;;;;;;18.75;18.25;;;;;1.82;85.74;99060.78;4960455;28;101824;-72
2022/11/28 06:08:57;;;;;;;;;26.75;22.00;;;;;1.78;86.61;99055.75;4966323;28;102151;-73
2022/11/28 06:11:26;;;;;;;;;15.00;13.25;;;;;1.87;86.19;99053.25;4965863;28;102995;-73
2022/11/28 06:13:53;;;;;;;;;18.00;15.50;;;;;1.83;87.05;99062.50;4963743;28;103662;-71
2022/11/28 06:16:24;;;;;;;;;33.00;30.67;;;;;1.85;87.51;99055.22;4967816;28;102010;-71
2022/11/28 06:18:56;;;;;;;;;36.67;26.33;;;;;1.79;87.48;99056.59;4961300;28;110463;-71
2022/11/28 06:21:24;;;;;;;;;23.67;20.67;;;;;1.80;87.73;99061.75;4967762;28;101669;-72
2022/11/28 06:23:51;;;;;;;;;37.00;33.67;;;;;1.72;87.01;99055.41;4954008;28;105607;-72
2022/11/28 06:26:21;;;;;;;;;53.00;42.67;;;;;1.57;86.92;99054.13;4964712;28;102176;-72
2022/11/28 06:28:49;;;;;;;;;52.00;44.33;;;;;1.47;88.06;99048.72;4945124;28;101896;-71
2022/11/28 06:31:18;;;;;;;;;44.00;37.67;;;;;1.47;87.76;99054.06;4967508;28;101824;-72
2022/11/28 06:33:46;;;;;;;;;47.33;37.00;;;;;1.39;87.60;99037.91;4960558;28;107909;-72
2022/11/28 06:36:15;;;;;;;;;49.67;39.00;;;;;1.49;88.30;99054.75;4964686;28;101759;-72
2022/11/28 06:38:42;;;;;;;;;41.00;33.00;;;;;1.44;87.49;99048.97;4954212;28;101831;-73
2022/11/28 06:41:43;;;;;;;;;45.00;31.33;;;;;1.52;88.55;99059.00;4973527;28;101762;-72
2022/11/28 06:44:15;;;;;;;;;57.00;40.67;;;;;1.43;88.33;99059.78;4961973;28;107863;-72
2022/11/28 06:46:42;;;;;;;;;46.67;37.67;;;;;1.35;88.64;99050.63;4961942;28;101770;-71
2022/11/28 06:49:12;;;;;;;;;54.00;42.00;;;;;1.38;88.66;99051.34;4962028;28;101580;-72
2022/11/28 06:51:41;;;;;;;;;53.33;40.33;;;;;1.34;89.03;99046.28;4962118;28;101636;-72
2022/11/28 06:54:08;;;;;;;;;58.00;47.00;;;;;1.34;88.63;99061.44;4963446;28;103524;-71
2022/11/28 06:56:35;;;;;;;;;42.33;35.67;;;;;1.43;88.59;99054.47;4960308;28;102445;-71
2022/11/28 06:59:02;;;;;;;;;30.00;26.67;;;;;1.51;88.49;99055.47;4947575;28;102030;-71
2022/11/28 07:01:31;;;;;;;;;21.67;18.33;;;;;1.62;87.20;99068.69;4964404;28;101938;-71
2022/11/28 07:03:58;;;;;;;;;43.67;36.00;;;;;1.54;89.32;99047.22;4959763;28;103731;-72
2022/11/28 07:06:27;;;;;;;;;52.00;44.00;;;;;1.56;87.52;99052.41;4954142;28;101775;-72
2022/11/28 07:08:57;;;;;;;;;43.67;31.33;;;;;1.62;87.93;99050.03;4964047;28;102350;-70
2022/11/28 07:11:30;;;;;;;;;27.67;25.00;;;;;1.71;87.83;99051.09;4960210;28;101831;-71
2022/11/28 07:14:00;;;;;;;;;25.00;18.00;;;;;1.85;87.25;99055.22;4955178;28;103522;-71
2022/11/28 07:16:30;;;;;;;;;48.00;36.00;;;;;1.65;87.04;99047.13;4958983;28;102123;-72
2022/11/28 07:18:58;;;;;;;;;36.67;33.33;;;;;1.53;87.68;99028.72;4942538;28;101880;-71
2022/11/28 07:21:27;;;;;;;;;35.33;32.00;;;;;1.73;86.97;99054.44;4955837;28;101820;-72
2022/11/28 07:23:54;;;;;;;;;32.67;27.00;;;;;1.76;86.78;99041.69;4945854;28;103538;-72
2022/11/28 07:26:22;;;;;;;;;21.33;18.33;;;;;1.89;87.07;99051.28;4955942;28;101879;-72
2022/11/28 07:28:50;;;;;;;;;17.75;14.50;;;;;1.99;86.46;99049.47;4960977;28;102674;-72
2022/11/28 07:31:20;;;;;;;;;20.00;17.00;;;;;1.99;86.13;99037.00;4962297;28;103446;-72
2022/11/28 07:33:49;;;;;;;;;22.25;18.00;;;;;2.10;86.25;99041.38;4957724;28;103576;-71
2022/11/28 07:36:17;;;;;;;;;19.00;16.25;;;;;2.10;85.99;99028.03;4943733;28;101587;-71
2022/11/28 07:38:49;;;;;;;;;18.50;16.00;;;;;2.27;85.67;99046.03;4967113;28;101870;-71
2022/11/28 07:41:17;;;;;;;;;28.00;23.33;;;;;2.28;85.81;99038.88;4964592;28;104356;-71
2022/11/28 07:43:57;;;;;;;;;22.25;18.25;;;;;2.22;84.98;99027.78;4954470;28;108000;-71
2022/11/28 07:46:25;;;;;;;;;29.25;22.75;;;;;2.35;83.91;99029.34;4950639;28;101694;-71
2022/11/28 07:48:53;;;;;;;;;22.75;21.25;;;;;2.20;84.64;99002.22;4957122;28;101694;-72
2022/11/28 07:51:27;;;;;;;;;25.50;19.75;;;;;2.43;84.58;99035.66;4959647;28;101534;-72
2022/11/28 07:53:54;;;;;;;;;19.25;18.50;;;;;2.51;84.64;99029.63;4964044;28;103413;-71
2022/11/28 07:56:24;;;;;;;;;44.00;31.33;;;;;2.34;84.55;99020.50;4958890;28;102131;-71
2022/11/28 07:59:06;;;;;;;;;46.33;36.67;;;;;2.35;85.65;99024.84;4951160;28;102048;-70
2022/11/28 08:01:34;;;;;;;;;31.33;21.33;;;;;2.46;85.65;99014.03;4953239;28;101586;-71
2022/11/28 08:04:04;;;;;;;;;40.33;34.67;;;;;2.35;84.35;99024.84;4961734;28;103550;-73
2022/11/28 08:06:35;;;;;;;;;49.00;36.33;;;;;2.34;84.85;99020.50;4967713;28;101843;-70
2022/11/28 08:09:03;;;;;;;;;35.33;32.00;;;;;2.39;85.81;99017.41;4966682;28;101630;-71
2022/11/28 08:11:31;;;;;;;;;42.67;33.67;;;;;2.39;84.53;99012.91;4961765;28;101851;-71
2022/11/28 08:13:59;;;;;;;;;40.67;33.67;;;;;2.39;84.56;98999.56;4957705;28;103598;-71
2022/11/28 08:16:27;;;;;;;;;30.50;25.25;;;;;2.58;85.29;99020.94;4967697;28;101655;-71
2022/11/28 08:18:55;;;;;;;;;23.25;19.00;;;;;2.73;84.55;99016.00;4968791;28;101590;-71
2022/11/28 08:21:25;;;;;;;;;24.25;20.50;;;;;2.79;83.94;99018.13;4966587;28;101547;-71
2022/11/28 08:23:54;;;;;;;;;21.25;21.00;;;;;2.89;83.86;99018.94;4959546;28;103388;-71
2022/11/28 08:26:23;;;;;;;;;18.25;14.25;;;;;3.01;83.84;99009.81;4955447;28;101752;-71
2022/11/28 08:28:56;;;;;;;;;17.50;14.75;;;;;3.02;82.99;99000.78;4962948;28;101642;-71
2022/11/28 08:31:30;;;;;;;;;24.00;18.75;;;;;3.11;81.57;99005.25;4959133;28;102436;-71
2022/11/28 08:33:59;;;;;;;;;20.00;16.25;;;;;3.19;82.47;99011.72;4962120;28;102515;-72
2022/11/28 08:36:26;;;;;;;;;20.50;18.00;;;;;3.19;82.42;99009.91;4962774;28;101960;-72
2022/11/28 08:38:56;;;;;;;;;14.00;11.25;;;;;3.20;82.12;99002.72;4957209;28;102873;-72
2022/11/28 08:41:43;;;;;;;;;19.75;16.50;;;;;3.30;82.25;99009.72;4961090;28;102339;-72
2022/11/28 08:44:09;;;;;;;;;18.75;11.00;;;;;3.24;80.76;99009.47;4962640;28;103375;-72
2022/11/28 08:46:36;;;;;;;;;33.00;25.75;;;;;3.09;82.57;98995.72;4965790;28;103747;-72
2022/11/28 08:49:03;;;;;;;;;24.00;18.50;;;;;3.26;82.36;99012.81;4958732;28;102901;-72
2022/11/28 08:51:31;;;;;;;;;29.25;26.50;;;;;3.09;82.02;99006.41;4954942;28;101735;-72
2022/11/28 08:53:58;;;;;;;;;39.33;32.67;;;;;2.96;82.25;99017.41;4951767;28;103318;-72
2022/11/28 08:56:26;;;;;;;;;49.33;38.00;;;;;2.87;82.92;99012.06;4953538;28;101757;-73
2022/11/28 08:58:54;;;;;;;;;43.67;38.00;;;;;2.89;82.41;99018.09;4957725;28;101436;-73
2022/11/28 09:01:23;;;;;;;;;38.67;33.33;;;;;2.89;82.82;99016.25;4967678;28;101542;-72
2022/11/28 09:03:52;;;;;;;;;47.00;37.33;;;;;2.85;83.65;99014.88;4965034;28;103426;-70
2022/11/28 09:06:21;;;;;;;;;32.75;27.75;;;;;2.75;82.64;98976.66;4965854;28;103878;-72
2022/11/28 09:08:48;;;;;;;;;31.50;29.00;;;;;3.07;82.63;99024.38;4970320;28;101648;-73
2022/11/28 09:11:17;;;;;;;;;23.75;20.75;;;;;3.16;80.31;99012.84;4963900;28;101575;-71
2022/11/28 09:13:45;;;;;;;;;22.50;19.75;;;;;3.24;80.96;99002.28;4957876;28;108091;-71
2022/11/28 09:16:13;;;;;;;;;26.50;23.00;;;;;3.19;80.76;99007.22;4966717;28;101853;-71
2022/11/28 09:18:40;;;;;;;;;26.75;24.25;;;;;3.17;80.88;98997.66;4968446;28;101508;-71
2022/11/28 09:21:10;;;;;;;;;19.75;17.25;;;;;3.28;80.37;98990.31;4957451;28;101567;-71
2022/11/28 09:23:39;;;;;;;;;18.00;15.00;;;;;3.48;80.70;98999.94;4961157;28;103666;-72
2022/11/28 09:26:11;;;;;;;;;14.75;11.00;;;;;3.47;78.93;98987.56;4945381;28;101817;-71
2022/11/28 09:28:38;;;;;;;;;15.75;12.00;;;;;3.59;80.31;98998.94;4960761;28;101872;-71
2022/11/28 09:31:06;;;;;;;;;15.75;14.00;;;;;3.54;78.63;98979.81;4966770;28;101637;-72
2022/11/28 09:33:35;;;;;;;;;18.50;14.50;;;;;3.65;79.05;98995.66;4960204;28;102709;-72
2022/11/28 09:36:11;;;;;;;;;12.75;11.00;;;;;3.61;77.83;98983.56;4967910;28;101577;-71
2022/11/28 09:38:38;;;;;;;;;16.00;15.00;;;;;3.59;78.22;98977.53;4965307;28;101527;-71
2022/11/28 09:41:27;;;;;;;;;17.50;15.00;;;;;3.67;79.34;98987.47;4964608;28;101839;-72
2022/11/28 09:44:07;;;;;;;;;16.00;12.00;;;;;3.70;78.54;98980.00;4962283;28;107965;-71
2022/11/28 09:46:37;;;;;;;;;14.75;12.50;;;;;3.70;78.22;98977.31;4969847;28;102197;-72
2022/11/28 09:49:37;;;;;;;;;29.25;24.25;;;;;3.78;78.04;98976.59;4953810;28;101478;-72
2022/11/28 09:52:41;;;;;;;;;15.00;14.50;;;;;3.87;77.77;98978.38;4934477;28;101922;-72
2022/11/28 09:55:18;;;;;;;;;15.75;12.25;;;;;3.96;77.94;98966.78;4956135;28;108117;-72
2022/11/28 09:57:48;;;;;;;;;18.00;16.50;;;;;3.98;77.28;98967.47;4956145;28;101924;-72
2022/11/28 10:00:21;;;;;;;;;16.50;12.50;;;;;4.02;77.58;98958.13;4960784;28;101519;-72
2022/11/28 10:03:16;;;;;;;;;14.75;10.00;;;;;4.01;76.94;98943.91;4958373;28;101913;-72
2022/11/28 10:06:14;;;;;;;;;16.75;12.00;;;;;4.06;75.96;98951.50;4960433;28;108302;-72
2022/11/28 10:08:56;;;;;;;;;17.75;14.25;;;;;4.15;77.41;98957.75;4958782;28;101866;-72
2022/11/28 10:11:34;;;;;;;;;21.00;17.25;;;;;4.14;76.01;98948.06;4950448;28;101770;-72
2022/11/28 10:14:39;;;;;;;;;20.00;16.25;;;;;4.24;77.03;98949.66;4963300;28;101944;-72
2022/11/28 10:17:24;;;;;;;;;16.75;15.00;;;;;4.30;76.44;98949.06;4957164;28;107687;-72
2022/11/28 10:20:15;;;;;;;;;16.25;12.50;;;;;4.36;75.25;98940.44;4958978;28;101639;-71
2022/11/28 10:22:47;;;;;;;;;21.50;17.50;;;;;4.42;75.69;98955.88;4958986;28;101765;-72
2022/11/28 10:25:41;;;;;;;;;15.25;13.75;;;;;4.48;75.15;98938.34;4963319;28;101740;-72
2022/11/28 10:28:21;;;;;;;;;16.00;14.75;;;;;4.54;76.34;98937.75;4947425;28;108035;-72
2022/11/28 10:30:58;;;;;;;;;13.00;11.75;;;;;4.63;75.16;98930.63;4959794;28;101798;-71
2022/11/28 10:33:40;;;;;;;;;11.75;7.75;;;;;4.66;75.10;98932.97;4964761;28;101805;-71
2022/11/28 10:36:17;;;;;;;;;16.50;15.00;;;;;4.66;74.89;98919.56;4958363;28;101820;-71
2022/11/28 10:38:44;;;;;;;;;11.50;8.00;;;;;3.87;74.89;98767.91;4960049;28;103417;-73
2022/11/28 10:41:24;;;;;;;;;16.25;12.50;;;;;4.88;75.46;98911.03;4967408;28;101539;-73
2022/11/28 10:44:14;;;;;;;;;16.00;12.50;;;;;4.99;72.79;98909.94;4950806;28;101739;-73
2022/11/28 10:46:55;;;;;;;;;19.00;15.25;;;;;4.96;74.20;98913.75;4967506;28;101768;-71
2022/11/28 10:49:25;;;;;;;;;13.00;13.00;;;;;4.97;73.10;98906.56;4960025;28;107722;-72
2022/11/28 10:52:13;;;;;;;;;19.50;19.00;;;;;5.01;73.73;98898.03;4965895;28;101859;-72
2022/11/28 10:55:01;;;;;;;;;32.25;26.25;;;;;4.74;74.83;98901.72;4950567;28;102886;-73
2022/11/28 10:58:08;;;;;;;;;17.25;15.25;;;;;5.01;74.79;98898.03;4957693;28;102064;-73
2022/11/28 11:00:37;;;;;;;;;17.75;15.75;;;;;5.13;74.69;98885.22;4944286;28;107666;-73
2022/11/28 11:03:10;;;;;;;;;20.75;15.00;;;;;5.29;73.59;98886.16;4956312;28;101751;-73
2022/11/28 11:05:37;;;;;;;;;26.50;18.25;;;;;5.09;71.89;98890.03;4969064;28;101904;-72
2022/11/28 11:08:22;;;;;;;;;19.75;17.00;;;;;5.23;72.00;98886.78;4968573;28;101703;-71
2022/11/28 11:11:01;;;;;;;;;32.75;29.75;;;;;4.96;74.03;98884.28;4965093;28;108087;-71
2022/11/28 11:13:31;;;;;;;;;34.00;27.50;;;;;5.08;73.24;98885.72;4963622;28;101808;-72
2022/11/28 11:16:09;;;;;;;;;29.00;21.00;;;;;5.22;73.12;98882.41;4956269;28;101731;-71
2022/11/28 11:18:51;;;;;;;;;28.25;26.00;;;;;5.35;73.12;98890.88;4939517;28;102009;-71
2022/11/28 11:21:24;;;;;;;;;30.25;24.25;;;;;5.43;70.29;98875.81;4962290;28;107894;-71
2022/11/28 11:24:30;;;;;;;;;40.00;33.25;;;;;5.36;71.78;98884.47;4956532;28;109002;-72
2022/11/28 11:27:12;;;;;;;;;29.25;24.25;;;;;5.35;71.61;98877.47;4878835;28;102220;-72
2022/11/28 11:29:39;;;;;;;;;33.00;25.50;;;;;5.40;72.14;98877.78;4890756;28;101864;-72
2022/11/28 11:32:20;;;;;;;;;16.75;13.50;;;;;5.56;69.47;98877.03;4928752;28;103659;-71
2022/11/28 11:34:48;;;;;;;;;24.50;20.75;;;;;5.61;70.30;98876.53;4964834;28;103141;-71
2022/11/28 11:37:37;;;;;;;;;29.75;26.25;;;;;5.48;70.65;98881.53;4963554;28;101746;-72
2022/11/28 11:40:27;;;;;;;;;24.25;21.25;;;;;5.54;70.89;98873.66;4966643;28;101936;-72
2022/11/28 11:42:58;;;;;;;;;26.25;24.25;;;;;5.52;71.67;98870.31;4959544;28;108212;-72
2022/11/28 11:45:28;;;;;;;;;28.00;23.00;;;;;5.50;70.26;98858.91;4960631;28;101972;-71
2022/11/28 11:47:56;;;;;;;;;40.50;36.00;;;;;5.57;72.50;98883.25;4959357;28;101628;-71